LFMD 210230Z AUTO 01006KT 340V050 CAVOK 14/13 Q1018 LFMD 210200Z AUTO 35004KT 300V010 CAVOK 14/13 Q1018 LFMD 210130Z AUTO 36004KT 320V060 CAVOK 14/13 Q1018 LFMD 210100Z AUTO 01005KT 340V040 CAVOK 14/13 Q1018 LFMD 210030Z AUTO 01004KT 320V060 CAVOK 15/14 Q1018 LFMD 210000Z AUTO 36003KT CAVOK 15/14 Q1018 LFMD 202330Z AUTO 36004KT CAVOK 16/14 Q1017 LFMD 202300Z AUTO 36003KT 310V040 CAVOK 16/15 Q1017 LFMD 202230Z AUTO VRB03KT CAVOK 16/15 Q1017 LFMD 202200Z AUTO VRB03KT CAVOK 16/15 Q1017 LFMD 202130Z AUTO VRB02KT CAVOK 16/16 Q1017 NOSIG LFMD 202100Z AUTO 35003KT 310V040 CAVOK 16/15 Q1016 NOSIG LFMD 202030Z AUTO VRB02KT CAVOK 17/16 Q1016 NOSIG LFMD 202000Z AUTO VRB02KT CAVOK 17/16 Q1016 NOSIG LFMD 201930Z AUTO 05001KT 9999 FEW100/// ///CB 17/16 Q1016 BECMG NSC LFMD 201900Z AUTO 00000KT 9999 -RA VCTS FEW037/// BKN100/// OVC130/// ///CB 17/15 Q1015 BECMG NSW NSC LFMD 201830Z AUTO VRB05KT 4400 +TSRA BR SCT019/// BKN031/// BKN041/// ///CB 18/15 Q1015 BECMG CAVOK LFMD 201800Z AUTO 34004KT 300V030 9999 VCTS FEW025/// BKN062/// BKN110/// ///CB 20/18 Q1015 BECMG NSW NSC LFMD 201730Z AUTO 03005KT 320V080 9999 -TSRA SCT062/// BKN072/// OVC092/// ///CB 22/17 Q1014 BECMG NSW NSC LFMD 201700Z AUTO 02007KT 330V070 9999 FEW068/// BKN084/// OVC100/// ///CB 23/16 Q1013 TEMPO -TSRA BECMG NSC LFMD 201630Z AUTO 04006KT 350V090 9999 VCTS BKN066/// ///CB 24/15 Q1013 BECMG NSW NSC LFMD 201600Z AUTO 11005KT 030V160 9999 VCTS FEW078/// ///CB 25/17 Q1012 TEMPO SHRA LFMD 201530Z AUTO 12006KT 060V160 9999 FEW072/// ///CB 24/16 Q1012 TEMPO SHRA LFMD 201500Z AUTO 14007KT 110V180 9999 ///CB 24/16 Q1012 TEMPO SHRA LFMD 201430Z AUTO 17010KT 130V190 CAVOK 24/16 Q1012 TEMPO SHRA SCT060CB LFMD 201400Z AUTO 15007KT 100V190 CAVOK 25/16 Q1012 TEMPO SHRA SCT060CB LFMD 201330Z AUTO 15007KT 100V200 CAVOK 24/15 Q1012 TEMPO SHRA SCT060CB LFMD 201300Z AUTO 17007KT 120V190 CAVOK 24/15 Q1012 TEMPO FEW060TCU LFMD 201230Z AUTO 16006KT 110V200 CAVOK 24/14 Q1013 TEMPO FEW060TCU LFMD 201200Z AUTO 16006KT CAVOK 24/14 Q1013 TEMPO FEW060TCU LFMD 201130Z AUTO 16007KT CAVOK 24/12 Q1013 TEMPO FEW060TCU LFMD 201100Z AUTO 16007KT 110V190 CAVOK 24/12 Q1013 NOSIG LFMD 201030Z AUTO 15006KT 120V180 CAVOK 24/11 Q1013 NOSIG LFMD 201000Z AUTO 17006KT CAVOK 24/11 Q1013 NOSIG LFMD 200930Z AUTO 16006KT 120V190 CAVOK 23/10 Q1013 NOSIG LFMD 200900Z AUTO 15003KT 090V200 CAVOK 24/10 Q1013 NOSIG LFMD 200830Z AUTO 00000KT CAVOK 23/10 Q1013 BECMG 16010KT LFMD 200800Z AUTO VRB03KT CAVOK 21/10 Q1012 NOSIG LFMD 200730Z AUTO 36004KT 300V040 CAVOK 19/10 Q1012 BECMG 16010KT LFMD 200700Z AUTO 35003KT 320V030 CAVOK 17/10 Q1012 NOSIG LFMD 200630Z AUTO 01003KT 340V050 CAVOK 15/10 Q1012 NOSIG LFMD 200600Z AUTO 01004KT 330V040 CAVOK 14/09 Q1012 NOSIG LFMD 200530Z AUTO 01004KT 320V040 CAVOK 14/09 Q1011 NOSIG LFMD 200500Z AUTO VRB03KT CAVOK 14/09 Q1011 NOSIG LFMD 200430Z AUTO VRB02KT CAVOK 14/08 Q1011 NOSIG LFMD 200400Z AUTO VRB03KT CAVOK 14/09 Q1011 NOSIG LFMD 200330Z AUTO 00000KT CAVOK 13/09 Q1011 NOSIG LFMD 200300Z AUTO 00000KT CAVOK 13/09 Q1011 NOSIG LFMD 200230Z AUTO VRB01KT CAVOK 13/09 Q1011 NOSIG LFMD 200200Z AUTO 00000KT CAVOK 13/09 Q1011 LFMD 200130Z AUTO 00000KT CAVOK 14/09 Q1011 LFMD 200100Z AUTO 00000KT CAVOK 14/09 Q1011 LFMD 200030Z AUTO VRB02KT CAVOK 15/09 Q1011 LFMD 200000Z AUTO VRB01KT CAVOK 15/09 Q1011 LFMD 192330Z AUTO 00000KT CAVOK 16/09 Q1011 LFMD 192300Z AUTO VRB02KT CAVOK 17/09 Q1011 LFMD 192230Z AUTO VRB03KT CAVOK 19/08 Q1011 LFMD 192200Z AUTO VRB02KT CAVOK 18/08 Q1010 LFMD 192130Z AUTO VRB02KT CAVOK 19/08 Q1010 LFMD 192100Z AUTO VRB02KT CAVOK 20/07 Q1010 NOSIG LFMD 192030Z AUTO VRB03KT CAVOK 20/07 Q1010 NOSIG LFMD 192000Z AUTO 13004KT 080V200 CAVOK 22/07 Q1010 TEMPO 26020G30KT LFMD 191930Z AUTO 26008KT 180V340 CAVOK 22/07 Q1009 TEMPO 26020G30KT LFMD 191900Z AUTO 31011KT 260V360 CAVOK 23/07 Q1009 TEMPO 26020G30KT LFMD 191830Z AUTO 29015G29KT 260V330 CAVOK 22/07 Q1008 NOSIG LFMD 191800Z AUTO 29014G25KT 260V330 CAVOK 23/07 Q1008 NOSIG LFMD 191730Z AUTO 28019G36KT CAVOK 23/07 Q1008 NOSIG LFMD 191700Z AUTO 28015KT 250V320 CAVOK 23/07 Q1008 TEMPO 26020G30KT LFMD 191630Z AUTO 29014G25KT 260V320 CAVOK 24/07 Q1008 NOSIG LFMD 191600Z AUTO 29013G24KT 250V340 CAVOK 25/08 Q1008 NOSIG LFMD 191530Z AUTO 29016G30KT 250V330 CAVOK 26/09 Q1008 NOSIG LFMD 191500Z AUTO 28013KT 230V330 CAVOK 26/09 Q1008 TEMPO 26020G30KT

METAR Messwerte

Zurück zur Übersicht

Ort
m ü. NN
Zeit Temperatur Taupunkt Rel.
Luftfeuchte
Luftdruck:
Altimeter
NN
Station
Wind in Beaufort
(Knoten)
Sichtweite
(Meter)
Wolken
(Meter über Grund)
Wettererscheinung
Cannes
9
Di 21.09. 04:30141394 %1018
1018
1017
N 2 (6)
NNW - NO
>= 10000Nicht signifikant 
Cannes
9
Di 21.09. 04:00141394 %1018
1018
1017
N 2 (4)
WNW - N
>= 10000Nicht signifikant 
Cannes
9
Di 21.09. 03:30141394 %1018
1018
1017
N 2 (4)
NW - ONO
>= 10000Nicht signifikant 
Cannes
9
Di 21.09. 03:00141394 %1018
1018
1017
N 2 (5)
NNW - NO
>= 10000Nicht signifikant 
Cannes
9
Di 21.09. 02:30151494 %1018
1018
1017
N 2 (4)
NW - ONO
>= 10000Nicht signifikant 
Cannes
9
Di 21.09. 02:00151494 %1018
1018
1017
N 2 (3)>= 10000Nicht signifikant 
Cannes
9
Di 21.09. 01:30161488 %1017
1017
1016
N 2 (4)>= 10000Nicht signifikant 
Cannes
9
Di 21.09. 01:00161594 %1017
1017
1016
N 2 (3)
NW - NO
>= 10000Nicht signifikant 
Cannes
9
Di 21.09. 00:30161594 %1017
1017
1016
Uml 2 (3)>= 10000Nicht signifikant 
Cannes
9
Di 21.09. 00:00161594 %1017
1017
1016
Uml 2 (3)>= 10000Nicht signifikant 
Cannes
9
Mo 20.09. 23:301616100 %1017
1017
1016
Uml 1 (2)>= 10000Nicht signifikant 
Cannes
9
Mo 20.09. 23:00161594 %1016
1016
1015
N 2 (3)
NW - NO
>= 10000Nicht signifikant 
Cannes
9
Mo 20.09. 22:30171694 %1016
1016
1015
Uml 1 (2)>= 10000Nicht signifikant 
Cannes
9
Mo 20.09. 22:00171694 %1016
1016
1015
Uml 1 (2)>= 10000Nicht signifikant 
Cannes
9
Mo 20.09. 21:30171694 %1016
1016
1015
NO 1 (1)>= 10000Leicht bewölkt (3000) 
Cannes
9
Mo 20.09. 21:00171588 %1015
1015
1014
Windstill>= 10000Bedeckt (4000)
Stark bewölkt (3000)
Leicht bewölkt (1100)
Regen (schwach)
Cannes
9
Mo 20.09. 20:30181583 %1015
1015
1014
Uml 2 (5)4400Stark bewölkt (1200)
Stark bewölkt (940)
Wolkig (580)
Gewitter mit Regen (stark)
Nebeldunst
Cannes
9
Mo 20.09. 20:00201888 %1015
1015
1014
NNW 2 (4)
WNW - NNO
>= 10000Stark bewölkt (3400)
Stark bewölkt (1900)
Leicht bewölkt (760)
 
Cannes
9
Mo 20.09. 19:30221773 %1014
1014
1013
NNO 2 (5)
NW - O
>= 10000Bedeckt (2800)
Stark bewölkt (2200)
Wolkig (1900)
Gewitter mit Regen (schwach)
Cannes
9
Mo 20.09. 19:00231665 %1013
1013
1012
NNO 3 (7)
NNW - ONO
>= 10000Bedeckt (3000)
Stark bewölkt (2600)
Leicht bewölkt (2100)
 Bald möglich: Gewitter mit Regen (schwach)
Cannes
9
Mo 20.09. 18:30241557 %1013
1013
1012
NO 2 (6)
N - O
>= 10000Stark bewölkt (2000) 
Cannes
9
Mo 20.09. 18:00251761 %1012
1012
1011
OSO 2 (5)
NNO - SSO
>= 10000Leicht bewölkt (2400) Bald möglich: Regen-Schauer
Cannes
9
Mo 20.09. 17:30241661 %1012
1012
1011
OSO 2 (6)
ONO - SSO
>= 10000Leicht bewölkt (2200) Bald möglich: Regen-Schauer
Cannes
9
Mo 20.09. 17:00241661 %1012
1012
1011
SO 3 (7)
OSO - S
>= 10000  Bald möglich: Regen-Schauer
Cannes
9
Mo 20.09. 16:30241661 %1012
1012
1011
S 3 (10)
SO - S
>= 10000Nicht signifikant Bald möglich: Regen-Schauer
Cannes
9
Mo 20.09. 16:00251657 %1012
1012
1011
SSO 3 (7)
O - S
>= 10000Nicht signifikant Bald möglich: Regen-Schauer
Cannes
9
Mo 20.09. 15:30241557 %1012
1012
1011
SSO 3 (7)
O - SSW
>= 10000Nicht signifikant Bald möglich: Regen-Schauer
Cannes
9
Mo 20.09. 15:00241557 %1012
1012
1011
S 3 (7)
OSO - S
>= 10000Nicht signifikant 
Cannes
9
Mo 20.09. 14:30241454 %1013
1013
1012
SSO 2 (6)
OSO - SSW
>= 10000Nicht signifikant 
Cannes
9
Mo 20.09. 14:00241454 %1013
1013
1012
SSO 2 (6)>= 10000Nicht signifikant 
Cannes
9
Mo 20.09. 13:30241247 %1013
1013
1012
SSO 3 (7)>= 10000Nicht signifikant 
Cannes
9
Mo 20.09. 13:00241247 %1013
1013
1012
SSO 3 (7)
OSO - S
>= 10000Nicht signifikant 
Cannes
9
Mo 20.09. 12:30241144 %1013
1013
1012
SSO 2 (6)
OSO - S
>= 10000Nicht signifikant 
Cannes
9
Mo 20.09. 12:00241144 %1013
1013
1012
S 2 (6)>= 10000Nicht signifikant 
Cannes
9
Mo 20.09. 11:30231044 %1013
1013
1012
SSO 2 (6)
OSO - S
>= 10000Nicht signifikant 
Cannes
9
Mo 20.09. 11:00241041 %1013
1013
1012
SSO 2 (3)
O - SSW
>= 10000Nicht signifikant 
Cannes
9
Mo 20.09. 10:30231044 %1013
1013
1012
Windstill
Bald Übergang zu:
SSO 3 (10)
>= 10000Nicht signifikant 
Cannes
9
Mo 20.09. 10:00211049 %1012
1012
1011
Uml 2 (3)>= 10000Nicht signifikant 
Cannes
9
Mo 20.09. 09:30191056 %1012
1012
1011
N 2 (4)
WNW - NO
Bald Übergang zu:
SSO 3 (10)
>= 10000Nicht signifikant 
Cannes
9
Mo 20.09. 09:00171063 %1012
1012
1011
N 2 (3)
NW - NNO
>= 10000Nicht signifikant 
Cannes
9
Mo 20.09. 08:30151072 %1012
1012
1011
N 2 (3)
NNW - NO
>= 10000Nicht signifikant 
Cannes
9
Mo 20.09. 08:0014972 %1012
1012
1011
N 2 (4)
NNW - NO
>= 10000Nicht signifikant 
Cannes
9
Mo 20.09. 07:3014972 %1011
1011
1010
N 2 (4)
NW - NO
>= 10000Nicht signifikant 
Cannes
9
Mo 20.09. 07:0014972 %1011
1011
1010
Uml 2 (3)>= 10000Nicht signifikant 
Cannes
9
Mo 20.09. 06:3014867 %1011
1011
1010
Uml 1 (2)>= 10000Nicht signifikant 
Cannes
9
Mo 20.09. 06:0014972 %1011
1011
1010
Uml 2 (3)>= 10000Nicht signifikant 
Cannes
9
Mo 20.09. 05:3013977 %1011
1011
1010
Windstill>= 10000Nicht signifikant 
Cannes
9
Mo 20.09. 05:0013977 %1011
1011
1010
Windstill>= 10000Nicht signifikant 
Cannes
9
Mo 20.09. 04:3013977 %1011
1011
1010
Uml 1 (1)>= 10000Nicht signifikant 
Cannes
9
Mo 20.09. 04:0013977 %1011
1011
1010
Windstill>= 10000Nicht signifikant 
Cannes
9
Mo 20.09. 03:3014972 %1011
1011
1010
Windstill>= 10000Nicht signifikant 
Cannes
9
Mo 20.09. 03:0014972 %1011
1011
1010
Windstill>= 10000Nicht signifikant 
Cannes
9
Mo 20.09. 02:3015967 %1011
1011
1010
Uml 1 (2)>= 10000Nicht signifikant 
Cannes
9
Mo 20.09. 02:0015967 %1011
1011
1010
Uml 1 (1)>= 10000Nicht signifikant 
Cannes
9
Mo 20.09. 01:3016963 %1011
1011
1010
Windstill>= 10000Nicht signifikant 
Cannes
9
Mo 20.09. 01:0017959 %1011
1011
1010
Uml 1 (2)>= 10000Nicht signifikant 
Cannes
9
Mo 20.09. 00:3019849 %1011
1011
1010
Uml 2 (3)>= 10000Nicht signifikant 
Cannes
9
Mo 20.09. 00:0018852 %1010
1010
1009
Uml 1 (2)>= 10000Nicht signifikant 
Cannes
9
So 19.09. 23:3019849 %1010
1010
1009
Uml 1 (2)>= 10000Nicht signifikant 
Cannes
9
So 19.09. 23:0020743 %1010
1010
1009
Uml 1 (2)>= 10000Nicht signifikant 
Cannes
9
So 19.09. 22:3020743 %1010
1010
1009
Uml 2 (3)>= 10000Nicht signifikant 
Cannes
9
So 19.09. 22:0022738 %1010
1010
1009
SO 2 (4)
O - SSW
Bald möglich:
W 5 (20) - 7 (30)
>= 10000Nicht signifikant 
Cannes
9
So 19.09. 21:3022738 %1009
1009
1008
W 3 (8)
S - NNW
Bald möglich:
W 5 (20) - 7 (30)
>= 10000Nicht signifikant 
Cannes
9
So 19.09. 21:0023736 %1009
1009
1008
NW 4 (11)
W - N
Bald möglich:
W 5 (20) - 7 (30)
>= 10000Nicht signifikant 
Cannes
9
So 19.09. 20:3022738 %1008
1008
1007
WNW 4 (15) - 7 (29)
W - NNW
>= 10000Nicht signifikant 
Cannes
9
So 19.09. 20:0023736 %1008
1008
1007
WNW 4 (14) - 6 (25)
W - NNW
>= 10000Nicht signifikant 
Cannes
9
So 19.09. 19:3023736 %1008
1008
1007
W 5 (19) - 8 (36)>= 10000Nicht signifikant 
Cannes
9
So 19.09. 19:0023736 %1008
1008
1007
W 4 (15)
WSW - NW
Bald möglich:
W 5 (20) - 7 (30)
>= 10000Nicht signifikant 
Cannes
9
So 19.09. 18:3024734 %1008
1008
1007
WNW 4 (14) - 6 (25)
W - NW
>= 10000Nicht signifikant 
Cannes
9
So 19.09. 18:0025834 %1008
1008
1007
WNW 4 (13) - 6 (24)
WSW - NNW
>= 10000Nicht signifikant 
Cannes
9
So 19.09. 17:3026934 %1008
1008
1007
WNW 5 (16) - 7 (30)
WSW - NNW
>= 10000Nicht signifikant 
Cannes
9
So 19.09. 17:0026934 %1008
1008
1007
W 4 (13)
SW - NNW
Bald möglich:
W 5 (20) - 7 (30)
>= 10000Nicht signifikant 

Altimeter: Einstellung am Altimeter (Höhenmesser), die Höhe 0 muss auf diesen Luftdruckwert zeigen, damit das Gerät die Stationshöhe richtig anzeigt.

NN: Luftdruck reduziert auf "Normal Null", auf Meereshöhe, dieser von der Temperatur abhängige Wert wird bisweilen unkorrekt einfach als "Luftdruck" bezeichnet. Eigentlich nur eine fiktive Größe, die es erlaubt, Stationen auf unterschiedlichen Höhen miteinander zu vergleichen.

Station: Realer Luftdruck an der Station.